createdAt,value
2023-05-18T00:01:33.956Z,9.15
2023-05-18T00:04:04.204Z,9.11
2023-05-18T00:06:31.614Z,9.10
2023-05-18T00:08:58.259Z,9.06
2023-05-18T00:11:25.492Z,9.00
2023-05-18T00:13:52.560Z,8.94
2023-05-18T00:16:19.588Z,8.92
2023-05-18T00:18:47.517Z,8.92
2023-05-18T00:21:16.242Z,8.93
2023-05-18T00:23:49.617Z,8.92
2023-05-18T00:26:16.733Z,8.89
2023-05-18T00:28:43.545Z,8.86
2023-05-18T00:31:10.487Z,8.86
2023-05-18T00:33:37.905Z,8.82
2023-05-18T00:36:04.926Z,8.80
2023-05-18T00:38:32.065Z,8.73
2023-05-18T00:40:59.614Z,8.69
2023-05-18T00:43:26.419Z,8.64
2023-05-18T00:45:53.640Z,8.64
2023-05-18T00:48:21.007Z,8.65
2023-05-18T00:50:48.158Z,8.61
2023-05-18T00:53:15.379Z,8.61
2023-05-18T00:55:44.413Z,8.57
2023-05-18T00:58:12.374Z,8.55
2023-05-18T01:00:40.748Z,8.52
2023-05-18T01:03:11.045Z,8.47
2023-05-18T01:05:38.069Z,8.47
2023-05-18T01:08:05.795Z,8.45
2023-05-18T01:10:36.883Z,8.44
2023-05-18T01:13:10.767Z,8.41
2023-05-18T01:15:40.620Z,8.38
2023-05-18T01:18:16.987Z,8.36
2023-05-18T01:20:50.711Z,8.32
2023-05-18T01:23:37.448Z,8.30
2023-05-18T01:26:16.566Z,8.27
2023-05-18T01:28:47.022Z,8.18
2023-05-18T01:31:17.550Z,8.18
2023-05-18T01:33:45.123Z,8.18
2023-05-18T01:36:12.320Z,8.16
2023-05-18T01:38:43.726Z,8.11
2023-05-18T01:41:14.322Z,8.10
2023-05-18T01:43:52.140Z,8.06
2023-05-18T01:46:34.387Z,8.01
2023-05-18T01:49:31.221Z,8.02
2023-05-18T01:52:04.072Z,7.99
2023-05-18T01:54:33.520Z,7.93
2023-05-18T01:57:01.356Z,7.89
2023-05-18T01:59:29.308Z,7.90
2023-05-18T02:02:04.289Z,7.87
2023-05-18T02:04:31.570Z,7.84
2023-05-18T02:06:58.650Z,7.83
2023-05-18T02:09:25.462Z,7.79
2023-05-18T02:11:52.361Z,7.77
2023-05-18T02:14:19.441Z,7.75
2023-05-18T02:16:47.330Z,7.73
2023-05-18T02:19:15.063Z,7.73
2023-05-18T02:21:43.586Z,7.71
2023-05-18T02:24:12.577Z,7.70
2023-05-18T02:26:41.682Z,7.65
2023-05-18T02:29:12.107Z,7.66
2023-05-18T02:31:40.303Z,7.61
2023-05-18T02:34:09.222Z,7.61
2023-05-18T02:36:42.670Z,7.60
2023-05-18T02:39:10.567Z,7.57
2023-05-18T02:41:38.162Z,7.54
2023-05-18T02:44:06.251Z,7.51
2023-05-18T02:46:33.715Z,7.48
2023-05-18T02:49:00.624Z,7.46
2023-05-18T02:51:27.787Z,7.43
2023-05-18T02:53:54.899Z,7.45
2023-05-18T02:56:21.972Z,7.42
2023-05-18T02:58:49.370Z,7.43
2023-05-18T03:01:16.862Z,7.39
2023-05-18T03:03:43.784Z,7.35
2023-05-18T03:06:10.913Z,7.38
2023-05-18T03:08:41.066Z,7.37
2023-05-18T03:11:07.996Z,7.37
2023-05-18T03:13:35.106Z,7.36
2023-05-18T03:16:02.258Z,7.37
2023-05-18T03:18:29.416Z,7.36
2023-05-18T03:21:01.874Z,7.35
2023-05-18T03:23:30.227Z,7.36
2023-05-18T03:25:57.558Z,7.36
2023-05-18T03:28:24.854Z,7.34
2023-05-18T03:30:52.697Z,7.32
2023-05-18T03:33:19.719Z,7.29
2023-05-18T03:35:48.506Z,7.30
2023-05-18T03:38:15.953Z,7.28
2023-05-18T03:40:43.869Z,7.28
2023-05-18T03:43:10.672Z,7.25
2023-05-18T03:45:38.113Z,7.24
2023-05-18T03:48:05.345Z,7.19
2023-05-18T03:50:32.572Z,7.20
2023-05-18T03:52:59.379Z,7.21
2023-05-18T03:55:26.532Z,7.17
2023-05-18T03:57:54.225Z,7.16
2023-05-18T04:00:21.141Z,7.18
2023-05-18T04:02:51.719Z,7.22
2023-05-18T04:05:20.005Z,7.25
2023-05-18T04:07:47.225Z,7.21
2023-05-18T04:10:14.678Z,7.21
2023-05-18T04:12:41.776Z,7.23
2023-05-18T04:15:09.364Z,7.21
2023-05-18T04:17:36.678Z,7.25
2023-05-18T04:20:13.169Z,7.27
2023-05-18T04:22:46.529Z,7.28
2023-05-18T04:25:14.856Z,7.32
2023-05-18T04:27:45.407Z,7.37
2023-05-18T04:30:13.807Z,7.37
2023-05-18T04:32:43.393Z,7.43
2023-05-18T04:35:12.231Z,7.46
2023-05-18T04:37:43.225Z,7.44
2023-05-18T04:40:13.596Z,7.41
2023-05-18T04:42:50.623Z,7.47
2023-05-18T04:45:19.361Z,7.51
2023-05-18T04:47:48.588Z,7.54
2023-05-18T04:50:16.841Z,7.54
2023-05-18T04:52:49.120Z,7.55
2023-05-18T04:55:23.225Z,7.55
2023-05-18T04:57:51.052Z,7.59
2023-05-18T05:00:18.607Z,7.63
2023-05-18T05:02:46.049Z,7.64
2023-05-18T05:05:13.956Z,7.67
2023-05-18T05:07:41.142Z,7.68
2023-05-18T05:10:09.124Z,7.71
2023-05-18T05:12:37.835Z,7.75
2023-05-18T05:15:05.597Z,7.77
2023-05-18T05:17:33.509Z,7.82
2023-05-18T05:20:00.858Z,7.79
2023-05-18T05:22:28.210Z,7.81
2023-05-18T05:24:55.427Z,7.85
2023-05-18T05:27:26.348Z,7.88
2023-05-18T05:29:56.369Z,7.93
2023-05-18T05:32:26.963Z,7.99
2023-05-18T05:34:54.353Z,8.04
2023-05-18T05:37:22.088Z,8.10
2023-05-18T05:39:49.178Z,8.17
2023-05-18T05:42:17.377Z,8.20
2023-05-18T05:44:47.633Z,8.24
2023-05-18T05:47:21.281Z,8.29
2023-05-18T05:49:49.424Z,8.33
2023-05-18T05:52:17.573Z,8.37
2023-05-18T05:54:45.236Z,8.40
2023-05-18T05:57:12.648Z,8.43
2023-05-18T05:59:39.823Z,8.48
2023-05-18T06:02:06.957Z,8.52
2023-05-18T06:04:33.950Z,8.59
2023-05-18T06:07:01.792Z,8.61
2023-05-18T06:09:29.933Z,8.66
2023-05-18T06:11:57.482Z,8.72
2023-05-18T06:14:24.531Z,8.75
2023-05-18T06:16:55.734Z,8.76
2023-05-18T06:19:26.010Z,8.81
2023-05-18T06:21:52.958Z,8.85
2023-05-18T06:24:22.985Z,8.88
2023-05-18T06:26:50.028Z,8.92
2023-05-18T06:29:18.087Z,8.96
2023-05-18T06:31:45.458Z,9.01
2023-05-18T06:34:13.595Z,9.08
2023-05-18T06:36:40.661Z,9.15
2023-05-18T06:39:08.071Z,9.22
2023-05-18T06:41:35.839Z,9.28
2023-05-18T06:44:06.994Z,9.33
2023-05-18T06:46:37.256Z,9.38
2023-05-18T06:49:04.963Z,9.46
2023-05-18T06:51:32.142Z,9.50
2023-05-18T06:53:59.744Z,9.55
2023-05-18T06:56:27.000Z,9.60
2023-05-18T06:58:54.068Z,9.62
2023-05-18T07:01:21.053Z,9.66
2023-05-18T07:03:48.108Z,9.71
2023-05-18T07:06:15.891Z,9.76
2023-05-18T07:08:44.464Z,9.79
2023-05-18T07:11:12.256Z,9.83
2023-05-18T07:13:39.114Z,9.88
2023-05-18T07:16:06.825Z,9.94
2023-05-18T07:18:34.029Z,10.00
2023-05-18T07:21:02.056Z,10.08
2023-05-18T07:23:29.351Z,10.16
2023-05-18T07:25:57.655Z,10.22
2023-05-18T07:28:25.250Z,10.27
2023-05-18T07:30:53.020Z,10.33
2023-05-18T07:33:20.157Z,10.37
2023-05-18T07:35:47.539Z,10.43
2023-05-18T07:38:15.383Z,10.45
2023-05-18T07:40:42.994Z,10.50
2023-05-18T07:43:10.780Z,10.53
2023-05-18T07:45:37.872Z,10.59
2023-05-18T07:48:05.154Z,10.63
2023-05-18T07:50:34.902Z,10.70
2023-05-18T07:53:03.960Z,10.73
2023-05-18T07:55:32.032Z,10.80
2023-05-18T07:58:01.116Z,10.83
2023-05-18T08:00:28.704Z,10.87
2023-05-18T08:02:56.728Z,10.91
2023-05-18T08:05:23.881Z,10.98
2023-05-18T08:07:51.192Z,11.02
2023-05-18T08:10:18.638Z,11.08
2023-05-18T08:12:46.060Z,11.13
2023-05-18T08:15:13.259Z,11.23
2023-05-18T08:17:42.015Z,11.28
2023-05-18T08:20:10.743Z,11.29
2023-05-18T08:22:37.648Z,11.34
2023-05-18T08:25:05.241Z,11.38
2023-05-18T08:27:32.899Z,11.42
2023-05-18T08:29:59.735Z,11.48
2023-05-18T08:32:28.260Z,11.50
2023-05-18T08:34:55.608Z,11.51
2023-05-18T08:37:22.625Z,11.57
2023-05-18T08:39:49.582Z,11.66
2023-05-18T08:42:23.434Z,11.71
2023-05-18T08:45:07.802Z,11.75
2023-05-18T08:50:05.664Z,11.88
2023-05-18T08:52:37.100Z,11.92
2023-05-18T08:55:08.506Z,11.95
2023-05-18T08:57:39.208Z,12.06
2023-05-18T09:00:07.875Z,12.07
2023-05-18T09:02:35.516Z,12.13
2023-05-18T09:05:03.156Z,12.20
2023-05-18T09:07:31.749Z,12.30
2023-05-18T09:10:00.993Z,12.36
2023-05-18T09:12:28.654Z,12.44
2023-05-18T09:14:55.976Z,12.49
2023-05-18T09:17:24.094Z,12.49
2023-05-18T09:19:51.718Z,12.47
2023-05-18T09:22:18.837Z,12.51
2023-05-18T09:24:46.042Z,12.51
2023-05-18T09:27:13.218Z,12.51
2023-05-18T09:29:55.896Z,12.56
2023-05-18T09:32:24.185Z,12.60
2023-05-18T09:34:52.996Z,12.68
2023-05-18T09:37:21.887Z,12.83
2023-05-18T09:40:02.331Z,12.97
2023-05-18T09:42:44.324Z,13.05
2023-05-18T09:45:18.923Z,13.04
2023-05-18T09:47:50.366Z,13.06
2023-05-18T09:50:22.374Z,13.15
2023-05-18T09:52:50.166Z,13.15
2023-05-18T09:55:19.195Z,13.21
2023-05-18T09:57:48.583Z,13.37
2023-05-18T10:00:17.997Z,13.42
2023-05-18T10:02:50.382Z,13.37
2023-05-18T10:05:29.781Z,13.47
2023-05-18T10:07:57.800Z,13.37
2023-05-18T10:10:27.201Z,13.30
2023-05-18T10:12:55.670Z,13.19
2023-05-18T10:15:24.976Z,13.27
2023-05-18T10:17:56.944Z,13.45
2023-05-18T10:20:25.961Z,13.59
2023-05-18T10:22:55.304Z,13.62
2023-05-18T10:25:26.644Z,13.63
2023-05-18T10:28:00.141Z,13.71
2023-05-18T10:30:27.863Z,13.75
2023-05-18T10:32:58.138Z,13.79
2023-05-18T10:35:28.371Z,13.87
2023-05-18T10:37:57.783Z,13.94
2023-05-18T10:40:26.840Z,13.96
2023-05-18T10:42:57.233Z,14.05
2023-05-18T10:45:25.064Z,14.02
2023-05-18T10:47:54.882Z,13.88
2023-05-18T10:50:23.040Z,13.90
2023-05-18T10:52:51.804Z,14.05
2023-05-18T10:55:19.430Z,14.24
2023-05-18T10:57:58.521Z,14.16
2023-05-18T11:00:25.984Z,14.21
2023-05-18T11:03:04.331Z,14.29
2023-05-18T11:05:31.826Z,14.46
2023-05-18T11:08:05.617Z,14.53
2023-05-18T11:10:46.893Z,14.56
2023-05-18T11:13:15.094Z,14.62
2023-05-18T11:16:04.974Z,14.71
2023-05-18T11:18:45.570Z,14.91
2023-05-18T11:21:42.637Z,14.90
2023-05-18T11:24:31.738Z,14.85
2023-05-18T11:27:01.031Z,14.91
2023-05-18T11:29:36.249Z,15.06
2023-05-18T11:32:05.296Z,15.20
2023-05-18T11:34:42.486Z,15.22
2023-05-18T11:37:10.211Z,15.24
2023-05-18T11:39:44.907Z,15.29
2023-05-18T11:42:20.611Z,15.19
2023-05-18T11:44:56.794Z,15.22
2023-05-18T11:47:30.878Z,15.22
2023-05-18T11:49:58.208Z,15.33
2023-05-18T11:52:25.831Z,15.34
2023-05-18T11:55:00.606Z,15.26
2023-05-18T11:57:54.925Z,15.45
2023-05-18T12:00:24.157Z,15.66
2023-05-18T12:02:52.679Z,15.79
2023-05-18T12:05:21.238Z,15.96
2023-05-18T12:07:52.615Z,16.18
2023-05-18T12:10:21.782Z,16.23
2023-05-18T12:12:52.137Z,16.21
2023-05-18T12:15:23.600Z,16.29
2023-05-18T12:17:51.812Z,16.49
2023-05-18T12:20:21.220Z,16.53
2023-05-18T12:22:52.490Z,16.58
2023-05-18T12:25:22.179Z,16.71
2023-05-18T12:27:50.089Z,16.95
2023-05-18T12:30:19.106Z,17.04
2023-05-18T12:32:47.201Z,17.14
2023-05-18T12:35:14.285Z,17.22
2023-05-18T12:37:45.768Z,17.44
2023-05-18T12:40:18.256Z,17.44
2023-05-18T12:43:00.245Z,17.34
2023-05-18T12:45:28.649Z,17.69
2023-05-18T12:47:56.514Z,18.21
2023-05-18T12:50:27.656Z,18.65
2023-05-18T12:52:56.552Z,18.99
2023-05-18T12:55:31.999Z,19.44
2023-05-18T12:58:07.402Z,20.13
2023-05-18T13:00:38.325Z,20.68
2023-05-18T13:03:14.482Z,21.40
2023-05-18T13:05:45.436Z,21.88
2023-05-18T13:08:18.148Z,22.19
2023-05-18T13:10:45.600Z,22.29
2023-05-18T13:13:15.768Z,22.59
2023-05-18T13:15:44.185Z,22.32
2023-05-18T13:18:12.064Z,22.95
2023-05-18T13:20:41.172Z,23.49
2023-05-18T13:23:13.895Z,23.50
2023-05-18T13:25:41.958Z,24.01
2023-05-18T13:28:11.198Z,24.25
2023-05-18T13:30:40.059Z,24.26
2023-05-18T13:33:10.858Z,23.98
2023-05-18T13:35:42.097Z,24.32
2023-05-18T13:38:14.047Z,23.98
2023-05-18T13:40:42.336Z,24.34
2023-05-18T13:43:11.994Z,24.67
2023-05-18T13:45:41.490Z,25.02
2023-05-18T13:48:10.758Z,25.04
2023-05-18T13:50:39.454Z,25.08
2023-05-18T13:53:07.232Z,25.28
2023-05-18T13:55:35.477Z,25.52
2023-05-18T13:58:03.463Z,25.47
2023-05-18T14:00:33.588Z,26.18
2023-05-18T14:03:02.716Z,26.12
2023-05-18T14:05:30.829Z,26.01
2023-05-18T14:07:57.730Z,25.77
2023-05-18T14:10:25.630Z,26.07
2023-05-18T14:12:52.493Z,26.01
2023-05-18T14:15:19.835Z,25.97
2023-05-18T14:17:47.091Z,25.94
2023-05-18T14:20:14.423Z,26.10
2023-05-18T14:22:41.917Z,26.21
2023-05-18T14:25:09.343Z,26.43
2023-05-18T14:27:42.325Z,26.43
2023-05-18T14:30:09.882Z,26.42
2023-05-18T14:32:37.306Z,26.45
2023-05-18T14:35:06.626Z,26.83
2023-05-18T14:37:34.397Z,26.91
2023-05-18T14:40:01.182Z,26.94
2023-05-18T14:42:28.613Z,26.80
2023-05-18T14:44:56.111Z,27.04
2023-05-18T14:47:23.550Z,26.90
2023-05-18T14:49:50.950Z,27.31
2023-05-18T14:52:18.325Z,27.16
2023-05-18T14:54:45.306Z,27.20
2023-05-18T14:57:12.899Z,26.66
2023-05-18T14:59:40.167Z,26.86
2023-05-18T15:02:08.437Z,26.57
2023-05-18T15:04:36.232Z,26.33
2023-05-18T15:07:05.540Z,26.51
2023-05-18T15:09:33.407Z,26.14
2023-05-18T15:12:01.024Z,25.83
2023-05-18T15:14:28.500Z,25.60
2023-05-18T15:16:55.647Z,25.69
2023-05-18T15:19:22.851Z,25.68
2023-05-18T15:21:49.871Z,25.06
2023-05-18T15:24:17.317Z,24.87
2023-05-18T15:26:45.257Z,24.59
2023-05-18T15:29:12.189Z,24.61
2023-05-18T15:31:40.027Z,24.91
2023-05-18T15:34:09.962Z,24.72
2023-05-18T15:36:38.169Z,24.51
2023-05-18T15:39:05.785Z,24.79
2023-05-18T15:41:34.187Z,24.70
2023-05-18T15:44:01.987Z,24.24
2023-05-18T15:46:35.512Z,23.77
2023-05-18T15:49:02.990Z,23.58
2023-05-18T15:51:36.028Z,23.68
2023-05-18T15:54:09.222Z,23.71
2023-05-18T15:56:36.218Z,23.77
2023-05-18T15:59:04.181Z,23.49
2023-05-18T16:01:31.736Z,23.28
2023-05-18T16:03:59.993Z,23.11
2023-05-18T16:06:27.182Z,22.85
2023-05-18T16:08:56.014Z,22.59
2023-05-18T16:11:23.227Z,22.58
2023-05-18T16:13:56.649Z,22.66
2023-05-18T16:16:25.380Z,22.49
2023-05-18T16:19:13.430Z,22.15
2023-05-18T16:21:40.934Z,22.18
2023-05-18T16:24:08.548Z,22.35
2023-05-18T16:26:37.948Z,22.51
2023-05-18T16:29:07.147Z,22.57
2023-05-18T16:31:35.492Z,22.75
2023-05-18T16:34:02.603Z,22.40
2023-05-18T16:36:31.618Z,22.28
2023-05-18T16:38:59.197Z,22.34
2023-05-18T16:41:32.479Z,22.26
2023-05-18T16:43:59.468Z,21.75
2023-05-18T16:46:27.506Z,21.60
2023-05-18T16:48:56.578Z,21.37
2023-05-18T16:51:27.330Z,21.03
2023-05-18T16:53:55.660Z,20.84
2023-05-18T16:56:23.567Z,20.69
2023-05-18T16:58:52.450Z,20.72
2023-05-18T17:01:28.049Z,20.59
2023-05-18T17:03:56.241Z,20.49
2023-05-18T17:06:23.830Z,20.32
2023-05-18T17:08:58.071Z,20.26
2023-05-18T17:11:26.867Z,20.07
2023-05-18T17:13:54.437Z,19.91
2023-05-18T17:16:22.255Z,19.71
2023-05-18T17:18:49.514Z,19.56
2023-05-18T17:21:17.084Z,19.36
2023-05-18T17:23:45.212Z,19.21
2023-05-18T17:26:12.836Z,19.13
2023-05-18T17:28:39.889Z,19.06
2023-05-18T17:31:07.269Z,19.00
2023-05-18T17:33:34.638Z,18.81
2023-05-18T17:36:02.384Z,18.60
2023-05-18T17:38:34.501Z,18.42
2023-05-18T17:41:04.173Z,18.24
2023-05-18T17:43:31.318Z,18.05
2023-05-18T17:46:01.904Z,17.94
2023-05-18T17:48:29.670Z,17.75
2023-05-18T17:50:56.430Z,17.65
2023-05-18T17:53:23.719Z,17.55
2023-05-18T17:55:51.055Z,17.43
2023-05-18T17:58:18.154Z,17.32
2023-05-18T18:00:45.138Z,17.23
2023-05-18T18:03:13.378Z,17.17
2023-05-18T18:05:40.640Z,17.09
2023-05-18T18:08:08.066Z,17.05
2023-05-18T18:10:35.396Z,16.96
2023-05-18T18:13:02.696Z,16.91
2023-05-18T18:15:31.925Z,16.80
2023-05-18T18:17:59.408Z,16.74
2023-05-18T18:20:27.284Z,16.73
2023-05-18T18:22:54.993Z,16.65
2023-05-18T18:25:22.197Z,16.64
2023-05-18T18:27:50.315Z,16.60
2023-05-18T18:30:18.133Z,16.55
2023-05-18T18:32:45.679Z,16.50
2023-05-18T18:35:13.607Z,16.45
2023-05-18T18:37:40.949Z,16.37
2023-05-18T18:40:09.009Z,16.33
2023-05-18T18:42:35.865Z,16.19
2023-05-18T18:45:04.362Z,16.09
2023-05-18T18:47:31.546Z,15.98
2023-05-18T18:50:05.662Z,15.95
2023-05-18T18:52:33.869Z,15.90
2023-05-18T18:55:01.783Z,15.82
2023-05-18T18:57:30.556Z,15.74
2023-05-18T18:59:59.464Z,15.64
2023-05-18T19:02:38.527Z,15.63
2023-05-18T19:05:06.826Z,15.54
2023-05-18T19:07:36.232Z,15.50
2023-05-18T19:10:08.443Z,15.45
2023-05-18T19:12:41.233Z,15.37
2023-05-18T19:15:10.662Z,15.27
2023-05-18T19:17:42.937Z,15.21
2023-05-18T19:20:16.711Z,15.16
2023-05-18T19:22:50.404Z,15.11
2023-05-18T19:25:17.915Z,15.05
2023-05-18T19:27:48.356Z,15.01
2023-05-18T19:30:19.140Z,14.97
2023-05-18T19:32:48.798Z,14.89
2023-05-18T19:35:18.902Z,14.82
2023-05-18T19:37:52.656Z,14.76
2023-05-18T19:40:24.781Z,14.71
2023-05-18T19:43:07.583Z,14.66
2023-05-18T19:45:40.331Z,14.63
2023-05-18T19:48:08.207Z,14.61
2023-05-18T19:50:35.654Z,14.56
2023-05-18T19:53:05.946Z,14.51
2023-05-18T19:55:33.731Z,14.48
2023-05-18T19:58:00.602Z,14.42
2023-05-18T20:00:27.671Z,14.38
2023-05-18T20:02:54.584Z,14.32
2023-05-18T20:05:24.350Z,14.26
2023-05-18T20:07:52.049Z,14.19
2023-05-18T20:10:19.462Z,14.14
2023-05-18T20:12:46.642Z,14.12
2023-05-18T20:15:13.789Z,14.08
2023-05-18T20:17:42.848Z,14.00
2023-05-18T20:20:10.235Z,13.97
2023-05-18T20:22:38.576Z,13.93
2023-05-18T20:25:06.524Z,13.91
2023-05-18T20:27:33.833Z,13.81
2023-05-18T20:30:01.195Z,13.73
2023-05-18T20:32:28.854Z,13.71
2023-05-18T20:34:55.844Z,13.64
2023-05-18T20:37:26.059Z,13.61
2023-05-18T20:39:57.340Z,13.58
2023-05-18T20:42:30.582Z,13.54
2023-05-18T20:44:59.145Z,13.46
2023-05-18T20:47:26.509Z,13.45
2023-05-18T20:49:53.244Z,13.35
2023-05-18T20:52:20.094Z,13.31
2023-05-18T20:54:47.278Z,13.24
2023-05-18T20:57:14.481Z,13.23
2023-05-18T20:59:41.713Z,13.21
2023-05-18T21:02:08.638Z,13.13
2023-05-18T21:04:36.272Z,13.08
2023-05-18T21:07:05.599Z,13.09
2023-05-18T21:09:34.403Z,13.02
2023-05-18T21:12:01.358Z,12.96
2023-05-18T21:14:28.825Z,12.93
2023-05-18T21:17:04.759Z,12.82
2023-05-18T21:19:32.701Z,12.80
2023-05-18T21:21:59.952Z,12.74
2023-05-18T21:24:26.761Z,12.71
2023-05-18T21:26:53.846Z,12.68
2023-05-18T21:29:20.698Z,12.67
2023-05-18T21:31:48.834Z,12.63
2023-05-18T21:34:16.324Z,12.65
2023-05-18T21:36:44.025Z,12.62
2023-05-18T21:39:11.566Z,12.57
2023-05-18T21:41:40.386Z,12.54
2023-05-18T21:44:07.029Z,12.53
2023-05-18T21:46:34.440Z,12.48
2023-05-18T21:49:03.137Z,12.47
2023-05-18T21:51:33.625Z,12.43
2023-05-18T21:54:04.367Z,12.42
2023-05-18T21:56:34.116Z,12.39
2023-05-18T21:59:01.284Z,12.40
2023-05-18T22:01:28.494Z,12.38
2023-05-18T22:03:56.167Z,12.38
2023-05-18T22:06:23.617Z,12.37
2023-05-18T22:08:50.884Z,12.32
2023-05-18T22:11:17.913Z,12.31
2023-05-18T22:13:44.916Z,12.31
2023-05-18T22:16:12.031Z,12.29
2023-05-18T22:18:39.612Z,12.24
2023-05-18T22:21:06.557Z,12.23
2023-05-18T22:23:33.931Z,12.23
2023-05-18T22:26:00.845Z,12.17
2023-05-18T22:28:27.668Z,12.14
2023-05-18T22:30:54.899Z,12.15
2023-05-18T22:33:21.915Z,12.11
2023-05-18T22:35:48.865Z,12.07
2023-05-18T22:38:16.860Z,12.07
2023-05-18T22:40:45.202Z,12.03
2023-05-18T22:43:12.052Z,11.98
2023-05-18T22:45:38.952Z,11.94
2023-05-18T22:48:06.698Z,11.91
2023-05-18T22:50:34.370Z,11.88
2023-05-18T22:53:02.298Z,11.84
2023-05-18T22:55:29.096Z,11.81
2023-05-18T22:57:57.248Z,11.79
2023-05-18T23:00:24.571Z,11.75
2023-05-18T23:02:52.958Z,11.71
2023-05-18T23:05:20.671Z,11.66
2023-05-18T23:07:50.070Z,11.66
2023-05-18T23:10:18.484Z,11.60
2023-05-18T23:12:48.326Z,11.54
2023-05-18T23:15:15.553Z,11.50
2023-05-18T23:17:42.897Z,11.43
2023-05-18T23:20:11.432Z,11.39
2023-05-18T23:22:38.309Z,11.34
2023-05-18T23:25:08.496Z,11.29
2023-05-18T23:27:35.603Z,11.14
2023-05-18T23:30:03.222Z,11.15
2023-05-18T23:32:31.272Z,11.11
2023-05-18T23:34:59.504Z,11.05
2023-05-18T23:37:26.574Z,11.03
2023-05-18T23:39:56.343Z,11.03
2023-05-18T23:42:24.741Z,11.04
2023-05-18T23:44:52.215Z,11.00
2023-05-18T23:47:19.587Z,10.98
2023-05-18T23:49:47.656Z,10.95
2023-05-18T23:52:19.728Z,10.92
2023-05-18T23:54:50.336Z,10.91
2023-05-18T23:57:17.579Z,10.86
2023-05-18T23:59:44.937Z,10.82
